createdAt,value
2022-12-06T00:01:34.770Z,55.90
2022-12-06T00:04:06.401Z,55.30
2022-12-06T00:06:45.271Z,58.10
2022-12-06T00:09:19.914Z,60.00
2022-12-06T00:11:48.110Z,57.80
2022-12-06T00:14:16.727Z,56.50
2022-12-06T00:16:45.081Z,55.10
2022-12-06T00:19:14.626Z,55.90
2022-12-06T00:21:43.083Z,56.70
2022-12-06T00:24:16.849Z,53.80
2022-12-06T00:26:46.728Z,53.50
2022-12-06T00:29:19.108Z,55.50
2022-12-06T00:31:47.082Z,59.50
2022-12-06T00:34:15.578Z,57.40
2022-12-06T00:36:43.810Z,56.80
2022-12-06T00:39:14.767Z,55.80
2022-12-06T00:41:43.466Z,58.70
2022-12-06T00:44:11.769Z,56.20
2022-12-06T00:46:40.276Z,55.50
2022-12-06T00:49:09.267Z,55.40
2022-12-06T00:51:37.903Z,56.90
2022-12-06T00:54:07.218Z,55.80
2022-12-06T00:56:36.741Z,52.70
2022-12-06T00:59:06.585Z,55.30
2022-12-06T01:01:36.326Z,54.50
2022-12-06T01:04:06.826Z,56.00
2022-12-06T01:06:36.440Z,52.00
2022-12-06T01:09:08.194Z,52.40
2022-12-06T01:11:36.618Z,52.90
2022-12-06T01:14:04.464Z,53.40
2022-12-06T01:16:32.631Z,50.80
2022-12-06T01:19:05.500Z,51.20
2022-12-06T01:21:33.575Z,52.50
2022-12-06T01:24:01.277Z,51.80
2022-12-06T01:26:34.781Z,51.00
2022-12-06T01:29:04.068Z,49.10
2022-12-06T01:31:38.202Z,49.60
2022-12-06T01:34:13.592Z,50.40
2022-12-06T01:36:41.648Z,52.00
2022-12-06T01:39:10.808Z,48.30
2022-12-06T01:41:39.689Z,48.60
2022-12-06T01:44:28.099Z,50.60
2022-12-06T01:46:55.901Z,48.70
2022-12-06T01:49:29.630Z,46.50
2022-12-06T01:52:07.024Z,45.30
2022-12-06T01:54:34.876Z,47.20
2022-12-06T01:57:07.038Z,46.60
2022-12-06T01:59:35.781Z,43.90
2022-12-06T02:02:03.860Z,43.10
2022-12-06T02:04:32.218Z,43.70
2022-12-06T02:07:01.141Z,46.40
2022-12-06T02:09:29.763Z,42.20
2022-12-06T02:11:57.507Z,43.80
2022-12-06T02:14:31.593Z,42.80
2022-12-06T02:17:15.556Z,44.30
2022-12-06T02:20:13.634Z,41.90
2022-12-06T02:23:15.594Z,41.20
2022-12-06T02:26:11.639Z,42.80
2022-12-06T02:29:08.568Z,45.20
2022-12-06T02:31:42.680Z,41.80
2022-12-06T02:34:18.133Z,41.80
2022-12-06T02:36:55.711Z,45.00
2022-12-06T02:39:35.054Z,44.10
2022-12-06T02:42:08.434Z,42.20
2022-12-06T02:44:41.238Z,44.00
2022-12-06T02:47:11.860Z,43.50
2022-12-06T02:49:46.680Z,44.50
2022-12-06T02:52:15.781Z,41.80
2022-12-06T02:54:46.278Z,41.00
2022-12-06T02:57:14.185Z,44.10
2022-12-06T02:59:51.726Z,43.20
2022-12-06T03:02:22.137Z,40.00
2022-12-06T03:05:18.238Z,39.60
2022-12-06T03:07:48.120Z,39.40
2022-12-06T03:10:40.896Z,40.20
2022-12-06T03:13:18.053Z,39.70
2022-12-06T03:15:59.211Z,39.20
2022-12-06T03:18:46.141Z,38.10
2022-12-06T03:21:21.569Z,39.40
2022-12-06T03:23:51.663Z,39.50
2022-12-06T03:26:24.070Z,36.80
2022-12-06T03:28:56.026Z,38.40
2022-12-06T03:31:25.662Z,39.60
2022-12-06T03:33:59.622Z,38.00
2022-12-06T03:36:29.975Z,37.40
2022-12-06T03:39:01.037Z,38.30
2022-12-06T03:41:34.025Z,40.30
2022-12-06T03:44:01.929Z,40.10
2022-12-06T03:46:44.448Z,37.70
2022-12-06T03:49:17.441Z,40.20
2022-12-06T03:51:46.190Z,39.50
2022-12-06T03:54:14.050Z,37.70
2022-12-06T03:56:41.969Z,38.60
2022-12-06T03:59:11.180Z,39.90
2022-12-06T04:01:39.426Z,39.70
2022-12-06T04:04:07.680Z,39.40
2022-12-06T04:06:35.684Z,37.50
2022-12-06T04:09:22.245Z,37.70
2022-12-06T04:11:50.730Z,39.00
2022-12-06T04:14:18.763Z,39.60
2022-12-06T04:17:16.116Z,37.70
2022-12-06T04:19:48.076Z,37.80
2022-12-06T04:22:37.074Z,38.60
2022-12-06T04:25:05.140Z,37.30
2022-12-06T04:27:51.572Z,35.00
2022-12-06T04:30:38.184Z,35.90
2022-12-06T04:33:24.727Z,38.80
2022-12-06T04:36:15.099Z,36.40
2022-12-06T04:38:43.290Z,34.10
2022-12-06T04:41:12.205Z,36.20
2022-12-06T04:43:42.691Z,36.80
2022-12-06T04:46:13.132Z,36.20
2022-12-06T04:48:41.913Z,33.30
2022-12-06T04:51:13.163Z,35.70
2022-12-06T04:53:41.258Z,35.90
2022-12-06T04:56:09.343Z,34.80
2022-12-06T04:58:37.225Z,34.40
2022-12-06T05:01:05.347Z,36.00
2022-12-06T05:03:33.394Z,35.90
2022-12-06T05:06:01.390Z,36.30
2022-12-06T05:08:29.123Z,35.20
2022-12-06T05:10:57.223Z,36.20
2022-12-06T05:13:25.299Z,37.60
2022-12-06T05:15:55.431Z,36.90
2022-12-06T05:18:25.049Z,36.30
2022-12-06T05:21:02.566Z,36.90
2022-12-06T05:23:30.406Z,37.30
2022-12-06T05:26:03.774Z,36.80
2022-12-06T05:28:31.849Z,35.90
2022-12-06T05:30:59.713Z,35.50
2022-12-06T05:33:28.350Z,36.70
2022-12-06T05:35:56.222Z,33.60
2022-12-06T05:38:24.478Z,33.10
2022-12-06T05:40:52.350Z,33.40
2022-12-06T05:43:20.120Z,33.70
2022-12-06T05:45:52.753Z,34.30
2022-12-06T05:48:20.637Z,32.10
2022-12-06T05:50:50.051Z,33.10
2022-12-06T05:53:18.071Z,32.50
2022-12-06T05:55:46.608Z,33.60
2022-12-06T05:58:17.334Z,31.40
2022-12-06T06:00:49.780Z,31.20
2022-12-06T06:03:18.215Z,31.70
2022-12-06T06:05:50.459Z,32.30
2022-12-06T06:08:18.652Z,31.00
2022-12-06T06:10:46.689Z,30.30
2022-12-06T06:13:14.675Z,30.50
2022-12-06T06:15:42.545Z,31.30
2022-12-06T06:18:10.454Z,29.40
2022-12-06T06:20:38.291Z,29.10
2022-12-06T06:23:06.356Z,28.80
2022-12-06T06:25:34.125Z,27.90
2022-12-06T06:28:01.872Z,28.00
2022-12-06T06:30:29.748Z,26.30
2022-12-06T06:32:57.516Z,27.60
2022-12-06T06:35:25.438Z,27.50
2022-12-06T06:37:53.271Z,27.80
2022-12-06T06:40:22.075Z,26.00
2022-12-06T06:42:50.357Z,26.00
2022-12-06T06:45:19.876Z,26.50
2022-12-06T06:48:00.530Z,26.30
2022-12-06T06:50:28.526Z,26.00
2022-12-06T06:53:03.253Z,25.20
2022-12-06T06:55:31.643Z,27.10
2022-12-06T06:57:59.878Z,26.80
2022-12-06T07:00:28.427Z,25.90
2022-12-06T07:02:59.640Z,26.10
2022-12-06T07:05:27.815Z,27.00
2022-12-06T07:07:57.931Z,28.00
2022-12-06T07:10:27.314Z,26.90
2022-12-06T07:12:55.392Z,27.10
2022-12-06T07:15:23.213Z,27.30
2022-12-06T07:17:51.635Z,29.30
2022-12-06T07:20:19.845Z,27.70
2022-12-06T07:22:47.628Z,28.10
2022-12-06T07:25:16.184Z,29.40
2022-12-06T07:27:43.978Z,29.70
2022-12-06T07:30:16.897Z,28.70
2022-12-06T07:32:45.144Z,29.60
2022-12-06T07:35:12.950Z,29.30
2022-12-06T07:37:44.519Z,29.60
2022-12-06T07:40:14.380Z,29.90
2022-12-06T07:43:01.022Z,28.60
2022-12-06T07:45:29.594Z,30.30
2022-12-06T07:47:57.905Z,28.90
2022-12-06T07:50:25.961Z,26.70
2022-12-06T07:52:53.936Z,27.70
2022-12-06T07:55:21.752Z,28.50
2022-12-06T07:57:50.750Z,26.90
2022-12-06T08:00:19.630Z,24.70
2022-12-06T08:02:47.663Z,25.10
2022-12-06T08:05:15.897Z,26.80
2022-12-06T08:07:44.356Z,26.20
2022-12-06T08:10:12.418Z,24.40
2022-12-06T08:12:40.322Z,25.90
2022-12-06T08:15:13.072Z,27.00
2022-12-06T08:17:42.193Z,27.40
2022-12-06T08:20:10.990Z,26.90
2022-12-06T08:22:38.824Z,28.60
2022-12-06T08:25:07.449Z,28.60
2022-12-06T08:27:35.295Z,27.50
2022-12-06T08:30:03.809Z,28.10
2022-12-06T08:32:32.421Z,29.90
2022-12-06T08:35:00.280Z,31.10
2022-12-06T08:37:28.944Z,29.60
2022-12-06T08:39:57.187Z,30.70
2022-12-06T08:42:25.528Z,32.10
2022-12-06T08:44:54.545Z,30.30
2022-12-06T08:47:22.430Z,29.40
2022-12-06T08:49:51.668Z,28.40
2022-12-06T08:52:19.616Z,29.70
2022-12-06T08:54:48.130Z,30.20
2022-12-06T08:57:16.195Z,29.30
2022-12-06T08:59:44.162Z,29.50
2022-12-06T09:02:12.733Z,29.20
2022-12-06T09:04:40.846Z,28.90
2022-12-06T09:07:11.898Z,27.70
2022-12-06T09:09:41.021Z,25.90
2022-12-06T09:12:08.936Z,26.70
2022-12-06T09:14:37.380Z,27.50
2022-12-06T09:17:06.519Z,26.00
2022-12-06T09:19:34.944Z,28.00
2022-12-06T09:22:02.901Z,29.20
2022-12-06T09:24:31.051Z,30.90
2022-12-06T09:26:59.079Z,31.80
2022-12-06T09:29:27.290Z,30.80
2022-12-06T09:31:55.886Z,31.20
2022-12-06T09:34:24.074Z,32.00
2022-12-06T09:37:03.230Z,30.10
2022-12-06T09:39:37.735Z,30.10
2022-12-06T09:42:12.353Z,29.60
2022-12-06T09:44:46.710Z,30.40
2022-12-06T09:47:17.731Z,29.00
2022-12-06T09:50:01.116Z,29.10
2022-12-06T09:52:47.244Z,29.00
2022-12-06T09:55:36.768Z,29.50
2022-12-06T09:58:42.407Z,28.40
2022-12-06T10:01:30.672Z,27.60
2022-12-06T10:04:43.689Z,27.50
2022-12-06T10:07:32.595Z,27.30
2022-12-06T10:10:03.992Z,27.30
2022-12-06T10:12:58.165Z,26.60
2022-12-06T10:15:51.789Z,26.00
2022-12-06T10:18:31.626Z,26.70
2022-12-06T10:21:16.560Z,24.50
2022-12-06T10:24:01.824Z,25.00
2022-12-06T10:26:52.003Z,25.80
2022-12-06T10:29:29.497Z,26.00
2022-12-06T10:32:15.050Z,26.10
2022-12-06T10:35:18.436Z,26.70
2022-12-06T10:38:34.039Z,28.70
2022-12-06T10:44:32.387Z,24.00
2022-12-06T10:47:12.713Z,29.50
2022-12-06T10:49:54.935Z,28.80
2022-12-06T10:52:45.180Z,27.80
2022-12-06T10:55:26.718Z,27.00
2022-12-06T10:58:18.682Z,27.50
2022-12-06T11:01:06.023Z,26.60
2022-12-06T11:03:49.910Z,24.20
2022-12-06T11:06:33.891Z,24.20
2022-12-06T11:09:38.887Z,25.50
2022-12-06T11:12:31.634Z,23.50
2022-12-06T11:15:35.968Z,23.50
2022-12-06T11:18:10.829Z,24.20
2022-12-06T11:21:00.053Z,24.10
2022-12-06T11:23:39.660Z,22.20
2022-12-06T11:26:13.353Z,23.90
2022-12-06T11:28:43.485Z,25.20
2022-12-06T11:31:26.358Z,23.90
2022-12-06T11:33:54.255Z,22.60
2022-12-06T11:36:23.730Z,23.40
2022-12-06T11:38:50.699Z,23.50
2022-12-06T11:41:23.678Z,21.80
2022-12-06T11:43:51.773Z,21.20
2022-12-06T11:46:18.431Z,21.30
2022-12-06T11:48:47.001Z,20.60
2022-12-06T11:51:18.458Z,20.60
2022-12-06T11:54:03.196Z,19.90
2022-12-06T11:56:34.130Z,20.20
2022-12-06T11:59:30.125Z,19.90
2022-12-06T12:02:00.243Z,19.10
2022-12-06T12:04:38.204Z,18.30
2022-12-06T12:07:11.120Z,18.70
2022-12-06T12:09:57.755Z,19.80
2022-12-06T12:13:05.460Z,17.80
2022-12-06T12:15:33.178Z,18.40
2022-12-06T12:18:01.128Z,18.70
2022-12-06T12:20:31.101Z,18.60
2022-12-06T12:23:06.650Z,17.50
2022-12-06T12:25:35.916Z,18.00
2022-12-06T12:28:23.877Z,18.10
2022-12-06T12:30:56.528Z,17.80
2022-12-06T12:33:27.970Z,17.40
2022-12-06T12:36:16.523Z,15.70
2022-12-06T12:38:52.782Z,16.80
2022-12-06T12:41:30.612Z,16.90
2022-12-06T12:44:37.044Z,16.80
2022-12-06T12:46:58.253Z,16.30
2022-12-06T12:49:34.044Z,17.40
2022-12-06T12:52:03.852Z,17.70
2022-12-06T12:54:33.745Z,17.40
2022-12-06T12:57:06.664Z,18.60
2022-12-06T12:59:39.488Z,21.20
2022-12-06T13:02:26.898Z,21.00
2022-12-06T13:07:51.894Z,21.10
2022-12-06T13:10:26.999Z,20.10
2022-12-06T13:13:00.490Z,18.20
2022-12-06T13:15:46.526Z,17.20
2022-12-06T13:18:37.855Z,18.40
2022-12-06T13:21:20.197Z,19.40
2022-12-06T13:23:49.547Z,19.40
2022-12-06T13:26:26.084Z,19.40
2022-12-06T13:28:56.848Z,19.80
2022-12-06T13:31:29.104Z,20.60
2022-12-06T13:34:03.991Z,19.60
2022-12-06T13:36:34.340Z,20.00
2022-12-06T13:39:32.341Z,20.00
2022-12-06T13:42:17.436Z,20.10
2022-12-06T13:44:47.174Z,19.50
2022-12-06T13:47:26.152Z,20.20
2022-12-06T13:49:59.742Z,20.80
2022-12-06T13:52:42.031Z,19.60
2022-12-06T13:55:24.002Z,19.20
2022-12-06T13:57:58.965Z,20.50
2022-12-06T14:00:32.269Z,19.40
2022-12-06T14:03:04.143Z,19.00
2022-12-06T14:06:14.681Z,18.70
2022-12-06T14:08:50.932Z,18.90
2022-12-06T14:11:44.896Z,20.40
2022-12-06T14:14:18.119Z,19.90
2022-12-06T14:16:52.126Z,20.20
2022-12-06T14:19:22.170Z,22.40
2022-12-06T14:21:57.911Z,22.80
2022-12-06T14:24:30.542Z,24.60
2022-12-06T14:27:05.112Z,26.50
2022-12-06T14:29:32.452Z,26.90
2022-12-06T14:31:59.973Z,27.10
2022-12-06T14:34:30.297Z,26.30
2022-12-06T14:36:59.320Z,25.30
2022-12-06T14:39:28.754Z,24.60
2022-12-06T14:42:21.411Z,24.70
2022-12-06T14:45:01.757Z,25.00
2022-12-06T14:47:29.377Z,26.20
2022-12-06T14:50:19.448Z,26.10
2022-12-06T14:53:16.308Z,24.80
2022-12-06T14:55:57.104Z,25.40
2022-12-06T14:58:28.334Z,24.70
2022-12-06T15:01:00.312Z,27.40
2022-12-06T15:03:31.659Z,30.00
2022-12-06T15:06:16.876Z,28.50
2022-12-06T15:08:55.097Z,25.80
2022-12-06T15:11:47.648Z,26.50
2022-12-06T15:14:19.830Z,26.60
2022-12-06T15:17:09.707Z,27.70
2022-12-06T15:19:43.790Z,27.60
2022-12-06T15:22:24.996Z,26.50
2022-12-06T15:24:55.893Z,24.50
2022-12-06T15:27:26.393Z,24.30
2022-12-06T15:29:54.717Z,24.60
2022-12-06T15:32:24.827Z,26.30
2022-12-06T15:34:52.714Z,24.30
2022-12-06T15:40:13.745Z,24.10
2022-12-06T15:42:40.461Z,25.80
2022-12-06T15:45:14.739Z,26.20
2022-12-06T15:47:41.459Z,25.20
2022-12-06T15:50:18.036Z,25.70
2022-12-06T15:52:46.799Z,24.40
2022-12-06T15:55:19.305Z,24.40
2022-12-06T15:57:50.279Z,22.30
2022-12-06T16:00:20.254Z,25.40
2022-12-06T16:02:49.023Z,24.70
2022-12-06T16:05:18.065Z,26.20
2022-12-06T16:07:44.990Z,25.60
2022-12-06T16:10:12.147Z,29.50
2022-12-06T16:12:57.938Z,30.60
2022-12-06T16:15:24.492Z,27.90
2022-12-06T16:17:51.908Z,26.40
2022-12-06T16:20:30.502Z,28.80
2022-12-06T16:23:56.536Z,29.20
2022-12-06T16:26:20.177Z,27.80
2022-12-06T16:28:46.904Z,29.60
2022-12-06T16:31:13.947Z,30.80
2022-12-06T16:33:40.965Z,32.70
2022-12-06T16:36:28.105Z,30.90
2022-12-06T16:38:56.927Z,31.00
2022-12-06T16:41:31.632Z,30.80
2022-12-06T16:44:00.223Z,29.30
2022-12-06T16:46:31.586Z,28.90
2022-12-06T16:49:16.044Z,28.90
2022-12-06T16:51:52.055Z,29.10
2022-12-06T16:54:21.716Z,26.30
2022-12-06T16:56:49.605Z,24.20
2022-12-06T16:59:26.953Z,24.80
2022-12-06T17:01:54.770Z,25.40
2022-12-06T17:04:22.153Z,24.30
2022-12-06T17:06:49.303Z,25.30
2022-12-06T17:09:16.373Z,23.50
2022-12-06T17:12:03.276Z,26.50
2022-12-06T17:14:30.545Z,24.60
2022-12-06T17:16:59.039Z,25.00
2022-12-06T17:19:28.303Z,25.80
2022-12-06T17:21:58.979Z,24.30
2022-12-06T17:24:26.642Z,23.40
2022-12-06T17:26:54.562Z,23.50
2022-12-06T17:29:22.924Z,23.80
2022-12-06T17:31:50.505Z,22.80
2022-12-06T17:34:19.311Z,24.50
2022-12-06T17:36:47.464Z,25.30
2022-12-06T17:39:19.759Z,25.30
2022-12-06T17:42:05.575Z,24.30
2022-12-06T17:44:35.831Z,23.20
2022-12-06T17:47:02.889Z,26.50
2022-12-06T17:49:29.566Z,26.80
2022-12-06T17:51:57.113Z,27.80
2022-12-06T17:54:24.190Z,28.10
2022-12-06T17:56:53.459Z,28.60
2022-12-06T17:59:25.914Z,21.70
2022-12-06T18:04:43.508Z,18.40
2022-12-06T18:07:11.793Z,19.60
2022-12-06T18:09:39.025Z,18.00
2022-12-06T18:12:08.625Z,19.80
2022-12-06T18:14:35.620Z,19.90
2022-12-06T18:17:02.746Z,18.90
2022-12-06T18:19:30.725Z,17.30
2022-12-06T18:21:58.210Z,17.10
2022-12-06T18:24:29.262Z,17.00
2022-12-06T18:27:00.869Z,17.10
2022-12-06T18:29:27.729Z,15.70
2022-12-06T18:31:54.588Z,16.40
2022-12-06T18:34:21.625Z,16.90
2022-12-06T18:36:48.496Z,17.60
2022-12-06T18:39:23.567Z,16.90
2022-12-06T18:41:52.017Z,16.90
2022-12-06T18:44:19.483Z,17.90
2022-12-06T18:46:46.406Z,16.80
2022-12-06T18:49:13.774Z,15.90
2022-12-06T18:51:41.011Z,15.20
2022-12-06T18:54:13.160Z,15.20
2022-12-06T18:56:44.652Z,15.20
2022-12-06T18:59:12.691Z,15.60
2022-12-06T19:01:41.269Z,14.70
2022-12-06T19:04:15.419Z,16.30
2022-12-06T19:06:43.253Z,17.50
2022-12-06T19:09:14.017Z,15.90
2022-12-06T19:11:43.451Z,15.70
2022-12-06T19:14:11.600Z,15.40
2022-12-06T19:16:44.341Z,16.70
2022-12-06T19:19:16.477Z,15.90
2022-12-06T19:21:49.575Z,14.80
2022-12-06T19:24:22.793Z,15.80
2022-12-06T19:26:51.186Z,15.90
2022-12-06T19:29:18.929Z,14.70
2022-12-06T19:31:46.373Z,15.50
2022-12-06T19:34:19.045Z,15.90
2022-12-06T19:36:48.806Z,15.60
2022-12-06T19:39:19.009Z,14.30
2022-12-06T19:42:06.730Z,13.90
2022-12-06T19:44:34.099Z,15.30
2022-12-06T19:47:02.199Z,15.80
2022-12-06T19:49:31.430Z,16.40
2022-12-06T19:52:06.168Z,16.20
2022-12-06T19:54:36.989Z,16.50
2022-12-06T19:57:05.559Z,16.00
2022-12-06T19:59:36.798Z,15.90
2022-12-06T20:02:06.924Z,14.90
2022-12-06T20:04:40.217Z,14.50
2022-12-06T20:07:09.875Z,15.10
2022-12-06T20:09:39.537Z,15.50
2022-12-06T20:12:08.960Z,14.30
2022-12-06T20:14:48.254Z,14.80
2022-12-06T20:17:21.681Z,14.90
2022-12-06T20:19:49.538Z,15.20
2022-12-06T20:22:21.252Z,13.70
2022-12-06T20:24:48.857Z,14.00
2022-12-06T20:27:16.283Z,14.80
2022-12-06T20:29:43.425Z,15.00
2022-12-06T20:32:10.922Z,13.30
2022-12-06T20:34:38.853Z,14.20
2022-12-06T20:37:06.630Z,14.00
2022-12-06T20:39:36.999Z,14.40
2022-12-06T20:42:05.758Z,14.20
2022-12-06T20:44:33.569Z,14.10
2022-12-06T20:47:01.228Z,14.10
2022-12-06T20:49:28.204Z,12.80
2022-12-06T20:51:56.025Z,12.60
2022-12-06T20:54:23.509Z,13.00
2022-12-06T20:56:52.453Z,15.20
2022-12-06T20:59:20.058Z,13.80
2022-12-06T21:01:47.364Z,13.90
2022-12-06T21:04:17.041Z,16.20
2022-12-06T21:06:43.620Z,16.60
2022-12-06T21:09:10.643Z,15.20
2022-12-06T21:11:37.960Z,15.50
2022-12-06T21:14:05.520Z,15.80
2022-12-06T21:16:33.279Z,16.80
2022-12-06T21:19:05.691Z,17.30
2022-12-06T21:21:34.795Z,16.70
2022-12-06T21:24:04.793Z,16.30
2022-12-06T21:26:32.341Z,16.30
2022-12-06T21:28:59.876Z,16.80
2022-12-06T21:31:31.029Z,17.10
2022-12-06T21:33:58.695Z,15.40
2022-12-06T21:36:25.670Z,16.20
2022-12-06T21:38:53.013Z,15.60
2022-12-06T21:41:20.808Z,14.70
2022-12-06T21:43:48.055Z,14.80
2022-12-06T21:46:19.701Z,14.10
2022-12-06T21:48:51.199Z,13.30
2022-12-06T21:51:18.776Z,13.30
2022-12-06T21:53:45.280Z,12.30
2022-12-06T21:56:16.200Z,14.00
2022-12-06T21:58:43.455Z,13.40
2022-12-06T22:01:13.573Z,13.50
2022-12-06T22:03:40.775Z,13.50
2022-12-06T22:06:10.463Z,14.20
2022-12-06T22:08:39.952Z,13.90
2022-12-06T22:11:08.975Z,12.00
2022-12-06T22:13:36.103Z,12.20
2022-12-06T22:16:07.906Z,11.50
2022-12-06T22:18:39.863Z,10.60
2022-12-06T22:21:16.002Z,10.20
2022-12-06T22:23:43.365Z,11.00
2022-12-06T22:26:13.416Z,11.10
2022-12-06T22:28:40.260Z,10.00
2022-12-06T22:31:16.442Z,9.60
2022-12-06T22:33:43.843Z,10.50
2022-12-06T22:36:11.154Z,10.40
2022-12-06T22:38:38.098Z,10.50
2022-12-06T22:41:05.656Z,10.40
2022-12-06T22:43:32.405Z,10.40
2022-12-06T22:46:04.196Z,10.40
2022-12-06T22:48:30.680Z,9.70
2022-12-06T22:51:31.359Z,9.70
2022-12-06T22:54:00.318Z,9.90
2022-12-06T22:56:28.690Z,10.10
2022-12-06T22:58:57.959Z,9.50
2022-12-06T23:01:27.177Z,9.60
2022-12-06T23:03:54.430Z,9.80
2022-12-06T23:06:23.712Z,9.60
2022-12-06T23:08:54.233Z,9.20
2022-12-06T23:11:29.833Z,8.70
2022-12-06T23:13:58.143Z,9.10
2022-12-06T23:16:27.202Z,9.30
2022-12-06T23:18:54.426Z,8.50
2022-12-06T23:21:32.044Z,8.20
2022-12-06T23:24:05.077Z,8.80
2022-12-06T23:26:36.873Z,8.30
2022-12-06T23:29:03.509Z,7.60
2022-12-06T23:31:32.763Z,8.40
2022-12-06T23:34:02.187Z,8.40
2022-12-06T23:36:30.598Z,8.30
2022-12-06T23:39:00.152Z,8.20
2022-12-06T23:41:29.055Z,9.30
2022-12-06T23:43:57.120Z,8.70
2022-12-06T23:46:29.271Z,8.50
2022-12-06T23:48:56.738Z,8.70
2022-12-06T23:51:26.022Z,9.20
2022-12-06T23:53:58.125Z,8.10
2022-12-06T23:56:28.032Z,8.80
2022-12-06T23:58:55.943Z,9.10
